NW Arkansas Airport, AR

10:49 AM CDT on May 06, 2015 (GMT -0500)
Possum Oaks | | Change Station
CLOSE
Current Station
Personal Weather Station
Location: Cave Springs, AR
Elevation: 1204 ft
Nearby Weather Stations

Elev 1204 ft 36.26 °N, 94.22 °W | Updated 7 seconds ago

Overcast
Overcast
66.6 °F
Feels Like 66.6 °F
N
1.6
Wind Variable Wind from NE
Gusts 4.5 mph

Today
High -- | Low -- °F
--% Chance of Precip.
Yesterday
High -- | Low -- °F
Precip. -- in
6:19 AM 8:09 PM
Waning Gibbous, 93% visible
Pressure 30.07 in
Visibility 10.0 miles
Clouds Clear
Dew Point 64 °F
Humidity 91%
Rainfall 0.54 in
Snow Depth Not available.
UV 2.0 out of 12
Pollen 1.90 out of 12
Air Quality Not available.
Flu Activity No Activity
METAR KVBT 061535Z AUTO 17009KT 10SM CLR 19/15 A3007 RMK AO1

More Conditions Fewer Conditions

Pressure 30.07 in
Visibility 10.0 miles
Clouds Clear
Dew Point 64 °F
Humidity 91%
Rainfall 0.54 in
Snow Depth Not available.
UV 2.0 out of 12
Pollen 1.90 out of 12
Air Quality Not available.
Flu Activity No Activity
METAR KVBT 061535Z AUTO 17009KT 10SM CLR 19/15 A3007 RMK AO1

More Conditions Fewer Conditions

Nowcast | as of 10:30 am CDT on May 6, 2015

At 1025 am...scattered showers were confined to portions of Osage Washington Nowata Craig and northern Rogers counties in northeast Oklahoma and Carroll and Madison counties in northwest Arkansas. An isolated thunderstorm was observed in Nowata County. The precipitation was moving northeast at 35 miles an hour. Through noon... scattered showers will end in northeast Oklahoma as those showers move across the state line into southeast Kansas. Showers in Madison County Arkansas will come to an end as those showers move north northeast into Carroll County where showers will continue through noon.

×

10-Day Weather Forecast

Almanac

Astronomy

May. 06, 2015 Rise Set
Actual Time
Civil Twilight
Nautical Twilight
Astronomical Twilight
Moon
Length of Visible Light
Length of Day
Tomorrow will be .
, % of the Moon is Illuminated

Today's Extremes

State Highs State Lows

Community

WunderPhotos

Upload Photos

1,818,938 photos uploaded!

WunderBlogs® & News

Nearby

Air Quality

  Air Quality AQ Index Pollutant
Not available.

Snow Depth

Station Depth Elevation

Earthquake Activity

City Distance Mag. Time & Date
Minimum magnitude displayed is 2.5.

Coastal Water Temperatures

Place Temperature

Stations

Nearby Weather Stations

Station Location Temp. Windchill Dew Point Humidity Wind Precip. Elev Updated Type